createdAt,value
2017-09-08T00:01:00.927Z,81.70
2017-09-08T00:02:03.463Z,81.60
2017-09-08T00:03:06.092Z,81.60
2017-09-08T00:04:09.345Z,81.80
2017-09-08T00:05:12.599Z,81.60
2017-09-08T00:06:15.152Z,81.60
2017-09-08T00:07:17.687Z,81.80
2017-09-08T00:08:20.174Z,81.80
2017-09-08T00:09:22.692Z,82.50
2017-09-08T00:10:25.208Z,81.90
2017-09-08T00:11:27.724Z,81.80
2017-09-08T00:12:31.073Z,81.90
2017-09-08T00:13:34.365Z,82.00
2017-09-08T00:14:36.873Z,81.90
2017-09-08T00:15:39.411Z,82.00
2017-09-08T00:16:41.917Z,82.10
2017-09-08T00:17:44.458Z,82.10
2017-09-08T00:18:46.948Z,82.00
2017-09-08T00:19:50.180Z,82.20
2017-09-08T00:20:53.494Z,82.10
2017-09-08T00:21:55.973Z,82.00
2017-09-08T00:22:58.458Z,82.20
2017-09-08T00:24:01.227Z,82.20
2017-09-08T00:25:04.479Z,82.30
2017-09-08T00:26:06.972Z,82.30
2017-09-08T00:27:10.198Z,82.30
2017-09-08T00:28:12.683Z,82.30
2017-09-08T00:29:15.232Z,82.30
2017-09-08T00:30:17.732Z,83.00
2017-09-08T00:31:20.248Z,82.40
2017-09-08T00:32:22.760Z,82.50
2017-09-08T00:33:26.040Z,82.60
2017-09-08T00:34:28.524Z,82.50
2017-09-08T00:35:31.045Z,82.50
2017-09-08T00:36:34.269Z,82.50
2017-09-08T00:37:36.766Z,82.50
2017-09-08T00:38:39.284Z,82.50
2017-09-08T00:39:41.750Z,82.60
2017-09-08T00:40:45.013Z,82.80
2017-09-08T00:41:48.295Z,82.70
2017-09-08T00:42:50.831Z,82.70
2017-09-08T00:43:53.324Z,82.80
2017-09-08T00:44:55.799Z,82.80
2017-09-08T00:45:58.272Z,82.80
2017-09-08T00:47:00.804Z,82.90
2017-09-08T00:48:03.336Z,82.90
2017-09-08T00:49:05.839Z,82.90
2017-09-08T00:50:08.324Z,82.90
2017-09-08T00:51:10.844Z,82.90
2017-09-08T00:52:13.303Z,83.00
2017-09-08T00:53:16.540Z,83.80
2017-09-08T00:54:19.769Z,83.00
2017-09-08T00:55:22.240Z,83.00
2017-09-08T00:56:24.727Z,82.90
2017-09-08T00:57:27.958Z,83.10
2017-09-08T00:58:31.258Z,83.10
2017-09-08T00:59:33.843Z,83.10
2017-09-08T01:00:36.354Z,83.10
2017-09-08T01:01:38.835Z,83.10
2017-09-08T01:02:41.329Z,83.20
2017-09-08T01:03:43.843Z,83.10
2017-09-08T01:04:47.194Z,83.40
2017-09-08T01:05:50.604Z,83.60
2017-09-08T01:06:53.094Z,83.40
2017-09-08T01:07:55.588Z,83.40
2017-09-08T01:08:58.858Z,84.40
2017-09-08T01:10:01.442Z,83.70
2017-09-08T01:11:04.009Z,84.40
2017-09-08T01:12:06.635Z,83.80
2017-09-08T01:13:09.898Z,83.80
2017-09-08T01:14:12.411Z,84.40
2017-09-08T01:15:14.906Z,83.80
2017-09-08T01:16:18.199Z,83.90
2017-09-08T01:17:20.707Z,83.90
2017-09-08T01:18:23.313Z,83.90
2017-09-08T01:19:26.633Z,84.20
2017-09-08T01:20:29.159Z,84.10
2017-09-08T01:21:31.762Z,84.20
2017-09-08T01:22:34.279Z,84.20
2017-09-08T01:23:36.808Z,84.30
2017-09-08T01:24:39.330Z,84.50
2017-09-08T01:25:41.896Z,84.50
2017-09-08T01:26:44.577Z,84.40
2017-09-08T01:27:47.098Z,84.50
2017-09-08T01:28:49.688Z,84.60
2017-09-08T01:29:52.992Z,84.70
2017-09-08T01:30:55.559Z,84.70
2017-09-08T01:31:58.230Z,84.70
2017-09-08T01:33:00.723Z,84.70
2017-09-08T01:34:03.641Z,84.80
2017-09-08T01:35:06.889Z,84.90
2017-09-08T01:36:10.142Z,85.00
2017-09-08T01:37:12.682Z,85.00
2017-09-08T01:38:15.176Z,85.10
2017-09-08T01:39:18.642Z,85.90
2017-09-08T01:40:21.931Z,85.00
2017-09-08T01:41:24.487Z,85.00
2017-09-08T01:42:26.965Z,85.10
2017-09-08T01:43:29.439Z,85.30
2017-09-08T01:44:32.678Z,84.80
2017-09-08T01:45:35.979Z,85.30
2017-09-08T01:46:38.484Z,85.40
2017-09-08T01:47:41.697Z,86.00
2017-09-08T01:48:44.389Z,85.10
2017-09-08T01:49:46.972Z,85.20
2017-09-08T01:50:49.530Z,85.40
2017-09-08T01:51:52.017Z,85.50
2017-09-08T01:52:55.328Z,85.60
2017-09-08T01:53:58.038Z,85.40
2017-09-08T01:55:00.566Z,85.60
2017-09-08T01:56:03.107Z,85.50
2017-09-08T01:57:05.615Z,85.50
2017-09-08T01:58:08.100Z,85.50
2017-09-08T01:59:10.610Z,85.50
2017-09-08T02:00:13.932Z,86.20
2017-09-08T02:01:16.455Z,85.50
2017-09-08T02:02:19.751Z,85.60
2017-09-08T02:03:22.347Z,85.60
2017-09-08T02:04:25.774Z,85.60
2017-09-08T02:05:28.514Z,85.70
2017-09-08T02:06:31.991Z,85.70
2017-09-08T02:07:34.722Z,85.70
2017-09-08T02:08:38.004Z,86.40
2017-09-08T02:09:40.651Z,85.80
2017-09-08T02:10:43.193Z,85.80
2017-09-08T02:11:46.598Z,85.90
2017-09-08T02:12:49.084Z,85.90
2017-09-08T02:13:52.483Z,86.00
2017-09-08T02:14:54.988Z,86.00
2017-09-08T02:15:57.694Z,86.00
2017-09-08T02:17:00.396Z,85.90
2017-09-08T02:18:02.988Z,85.90
2017-09-08T02:19:05.553Z,85.90
2017-09-08T02:20:08.057Z,86.00
2017-09-08T02:21:10.572Z,86.20
2017-09-08T02:22:13.142Z,86.20
2017-09-08T02:23:15.672Z,86.20
2017-09-08T02:24:20.161Z,86.30
2017-09-08T02:25:22.682Z,86.20
2017-09-08T02:26:26.059Z,86.20
2017-09-08T02:27:28.707Z,86.10
2017-09-08T02:28:31.218Z,86.20
2017-09-08T02:29:33.705Z,86.30
2017-09-08T02:30:36.222Z,86.20
2017-09-08T02:31:39.545Z,86.00
2017-09-08T02:32:42.052Z,86.00
2017-09-08T02:33:44.662Z,86.20
2017-09-08T02:34:47.252Z,86.20
2017-09-08T02:35:49.948Z,86.30
2017-09-08T02:36:52.515Z,86.90
2017-09-08T02:37:55.025Z,86.00
2017-09-08T02:38:58.305Z,86.00
2017-09-08T02:40:00.806Z,86.00
2017-09-08T02:41:04.124Z,86.20
2017-09-08T02:42:06.655Z,86.10
2017-09-08T02:43:10.039Z,86.20
2017-09-08T02:44:12.560Z,86.10
2017-09-08T02:45:15.090Z,86.10
2017-09-08T02:46:17.655Z,86.00
2017-09-08T02:47:20.243Z,86.10
2017-09-08T02:48:22.820Z,86.10
2017-09-08T02:49:25.381Z,86.10
2017-09-08T02:50:28.734Z,86.10
2017-09-08T02:51:31.240Z,86.00
2017-09-08T02:52:33.776Z,86.30
2017-09-08T02:53:37.092Z,86.00
2017-09-08T02:54:40.437Z,86.50
2017-09-08T02:55:43.091Z,85.80
2017-09-08T02:56:46.440Z,85.90
2017-09-08T02:57:49.746Z,85.80
2017-09-08T02:58:52.316Z,85.80
2017-09-08T02:59:55.572Z,85.80
2017-09-08T03:00:58.107Z,85.70
2017-09-08T03:02:00.640Z,85.70
2017-09-08T03:03:03.120Z,85.50
2017-09-08T03:04:06.448Z,85.60
2017-09-08T03:05:09.843Z,85.40
2017-09-08T03:06:12.359Z,85.30
2017-09-08T03:07:14.934Z,85.30
2017-09-08T03:08:17.423Z,85.20
2017-09-08T03:09:19.925Z,85.10
2017-09-08T03:10:22.469Z,85.00
2017-09-08T03:11:24.982Z,85.10
2017-09-08T03:12:27.504Z,85.10
2017-09-08T03:13:30.065Z,84.80
2017-09-08T03:14:32.623Z,84.80
2017-09-08T03:15:35.950Z,85.00
2017-09-08T03:16:38.431Z,85.00
2017-09-08T03:17:40.934Z,85.10
2017-09-08T03:18:44.336Z,85.00
2017-09-08T03:19:46.905Z,85.00
2017-09-08T03:20:50.203Z,85.00
2017-09-08T03:21:52.667Z,85.00
2017-09-08T03:22:55.941Z,85.00
2017-09-08T03:23:58.479Z,85.00
2017-09-08T03:25:00.975Z,85.00
2017-09-08T03:26:04.283Z,84.90
2017-09-08T03:27:06.801Z,84.90
2017-09-08T03:28:09.377Z,84.80
2017-09-08T03:29:12.622Z,84.90
2017-09-08T03:30:15.895Z,84.60
2017-09-08T03:31:18.400Z,84.60
2017-09-08T03:32:21.138Z,84.70
2017-09-08T03:33:23.639Z,84.70
2017-09-08T03:34:26.201Z,84.70
2017-09-08T03:35:28.754Z,84.80
2017-09-08T03:36:31.321Z,84.80
2017-09-08T03:37:34.735Z,85.50
2017-09-08T03:38:37.374Z,84.80
2017-09-08T03:39:40.707Z,85.40
2017-09-08T03:40:43.324Z,84.80
2017-09-08T03:41:46.002Z,84.70
2017-09-08T03:42:48.567Z,84.50
2017-09-08T03:43:51.042Z,84.30
2017-09-08T03:44:54.337Z,84.60
2017-09-08T03:45:56.847Z,84.50
2017-09-08T03:46:59.384Z,84.20
2017-09-08T03:48:01.907Z,84.30
2017-09-08T03:49:04.388Z,84.50
2017-09-08T03:50:06.879Z,84.30
2017-09-08T03:51:09.597Z,84.40
2017-09-08T03:52:12.085Z,84.40
2017-09-08T03:53:14.667Z,84.20
2017-09-08T03:54:17.177Z,84.20
2017-09-08T03:55:19.797Z,84.10
2017-09-08T03:56:22.391Z,84.10
2017-09-08T03:57:24.900Z,84.10
2017-09-08T03:58:28.282Z,84.00
2017-09-08T03:59:30.843Z,84.00
2017-09-08T04:00:33.384Z,84.00
2017-09-08T04:01:35.962Z,83.90
2017-09-08T04:02:38.499Z,83.70
2017-09-08T04:03:40.965Z,83.70
2017-09-08T04:04:43.555Z,83.60
2017-09-08T04:05:46.038Z,83.70
2017-09-08T04:06:49.300Z,83.50
2017-09-08T04:07:51.974Z,83.50
2017-09-08T04:08:54.539Z,83.60
2017-09-08T04:09:57.072Z,83.70
2017-09-08T04:10:59.531Z,83.70
2017-09-08T04:12:02.065Z,83.70
2017-09-08T04:13:04.600Z,83.50
2017-09-08T04:14:07.258Z,83.50
2017-09-08T04:15:10.576Z,83.30
2017-09-08T04:16:13.073Z,83.30
2017-09-08T04:17:15.624Z,83.30
2017-09-08T04:18:18.209Z,83.30
2017-09-08T04:19:21.118Z,83.30
2017-09-08T04:20:24.852Z,83.40
2017-09-08T04:21:27.594Z,84.00
2017-09-08T04:22:30.880Z,83.40
2017-09-08T04:23:33.403Z,83.40
2017-09-08T04:24:35.900Z,83.20
2017-09-08T04:25:39.245Z,83.20
2017-09-08T04:26:42.540Z,83.20
2017-09-08T04:27:45.034Z,83.20
2017-09-08T04:28:47.889Z,83.20
2017-09-08T04:29:50.348Z,82.90
2017-09-08T04:30:52.925Z,83.00
2017-09-08T04:31:55.497Z,83.10
2017-09-08T04:32:58.843Z,83.80
2017-09-08T04:34:01.307Z,83.00
2017-09-08T04:35:03.832Z,83.10
2017-09-08T04:36:07.104Z,83.10
2017-09-08T04:37:09.658Z,83.10
2017-09-08T04:38:12.169Z,83.00
2017-09-08T04:39:15.478Z,83.00
2017-09-08T04:40:18.317Z,82.90
2017-09-08T04:41:20.896Z,82.80
2017-09-08T04:42:23.382Z,83.00
2017-09-08T04:43:25.900Z,83.00
2017-09-08T04:44:28.394Z,82.90
2017-09-08T04:45:31.631Z,82.70
2017-09-08T04:46:34.889Z,82.70
2017-09-08T04:47:38.244Z,82.60
2017-09-08T04:48:40.775Z,82.50
2017-09-08T04:49:43.311Z,82.50
2017-09-08T04:50:46.031Z,82.50
2017-09-08T04:51:48.579Z,82.50
2017-09-08T04:52:52.298Z,82.60
2017-09-08T04:53:55.564Z,82.60
2017-09-08T04:54:58.039Z,82.50
2017-09-08T04:56:01.327Z,82.70
2017-09-08T04:57:04.613Z,83.30
2017-09-08T04:58:07.177Z,82.60
2017-09-08T04:59:10.450Z,82.60
2017-09-08T05:00:13.077Z,82.50
2017-09-08T05:01:16.427Z,82.50
2017-09-08T05:02:18.956Z,82.40
2017-09-08T05:03:23.034Z,81.80
2017-09-08T05:04:25.567Z,82.20
2017-09-08T05:05:28.076Z,82.40
2017-09-08T05:06:30.700Z,82.50
2017-09-08T05:07:33.192Z,82.50
2017-09-08T05:08:35.695Z,82.50
2017-09-08T05:09:38.984Z,83.00
2017-09-08T05:10:41.488Z,82.20
2017-09-08T05:11:44.742Z,82.40
2017-09-08T05:12:47.301Z,82.40
2017-09-08T05:13:49.844Z,82.30
2017-09-08T05:14:52.473Z,82.30
2017-09-08T05:15:55.177Z,82.10
2017-09-08T05:16:57.631Z,82.20
2017-09-08T05:18:00.208Z,82.50
2017-09-08T05:19:02.775Z,82.70
2017-09-08T05:20:05.247Z,82.50
2017-09-08T05:21:07.721Z,82.80
2017-09-08T05:22:10.258Z,82.50
2017-09-08T05:23:13.093Z,82.80
2017-09-08T05:24:15.610Z,82.50
2017-09-08T05:25:18.084Z,82.70
2017-09-08T05:26:20.697Z,82.50
2017-09-08T05:27:24.510Z,82.30
2017-09-08T05:28:27.048Z,82.50
2017-09-08T05:29:29.633Z,82.50
2017-09-08T05:30:32.241Z,82.50
2017-09-08T05:31:34.754Z,82.50
2017-09-08T05:32:38.069Z,82.50
2017-09-08T05:33:40.539Z,82.40
2017-09-08T05:34:43.119Z,82.50
2017-09-08T05:35:45.643Z,82.50
2017-09-08T05:36:48.187Z,82.40
2017-09-08T05:37:51.505Z,82.30
2017-09-08T05:38:53.983Z,82.30
2017-09-08T05:39:57.302Z,82.20
2017-09-08T05:40:59.867Z,82.20
2017-09-08T05:42:02.470Z,82.30
2017-09-08T05:43:05.185Z,82.40
2017-09-08T05:44:07.748Z,82.40
2017-09-08T05:45:10.278Z,82.40
2017-09-08T05:46:12.808Z,82.50
2017-09-08T05:47:15.379Z,82.40
2017-09-08T05:48:17.859Z,82.40
2017-09-08T05:49:20.417Z,82.20
2017-09-08T05:50:22.963Z,82.20
2017-09-08T05:51:26.336Z,82.00
2017-09-08T05:52:29.713Z,82.00
2017-09-08T05:53:32.669Z,82.00
2017-09-08T05:54:35.216Z,82.20
2017-09-08T05:55:37.747Z,82.20
2017-09-08T05:56:40.470Z,82.20
2017-09-08T05:57:43.016Z,82.40
2017-09-08T05:58:46.357Z,82.00
2017-09-08T05:59:49.726Z,82.10
2017-09-08T06:00:52.206Z,82.10
2017-09-08T06:01:54.715Z,82.20
2017-09-08T06:02:57.232Z,82.40
2017-09-08T06:03:59.924Z,82.40
2017-09-08T06:05:02.517Z,82.60
2017-09-08T06:06:05.103Z,82.70
2017-09-08T06:07:07.584Z,82.80
2017-09-08T06:08:10.875Z,83.20
2017-09-08T06:09:13.354Z,82.80
2017-09-08T06:10:16.644Z,82.80
2017-09-08T06:11:19.149Z,82.80
2017-09-08T06:12:21.629Z,82.90
2017-09-08T06:13:24.214Z,82.90
2017-09-08T06:14:26.675Z,82.90
2017-09-08T06:15:29.224Z,82.80
2017-09-08T06:16:32.540Z,83.10
2017-09-08T06:17:35.052Z,83.00
2017-09-08T06:18:37.607Z,83.20
2017-09-08T06:19:40.888Z,83.20
2017-09-08T06:20:43.415Z,83.10
2017-09-08T06:21:46.059Z,83.10
2017-09-08T06:22:48.623Z,83.00
2017-09-08T06:23:51.256Z,82.90
2017-09-08T06:24:53.756Z,82.70
2017-09-08T06:25:56.267Z,82.40
2017-09-08T06:26:58.842Z,82.10
2017-09-08T06:28:01.405Z,82.20
2017-09-08T06:29:03.883Z,82.10
2017-09-08T06:30:06.476Z,82.20
2017-09-08T06:31:08.959Z,81.80
2017-09-08T06:32:12.239Z,82.00
2017-09-08T06:33:14.845Z,81.90
2017-09-08T06:34:18.132Z,81.80
2017-09-08T06:35:20.631Z,81.80
2017-09-08T06:36:23.285Z,81.50
2017-09-08T06:37:25.766Z,81.30
2017-09-08T06:38:28.262Z,81.60
2017-09-08T06:39:30.725Z,81.80
2017-09-08T06:40:33.316Z,81.30
2017-09-08T06:41:35.838Z,81.30
2017-09-08T06:42:39.222Z,81.40
2017-09-08T06:43:41.787Z,81.40
2017-09-08T06:44:44.530Z,81.20
2017-09-08T06:45:47.078Z,81.30
2017-09-08T06:46:50.649Z,80.40
2017-09-08T06:47:53.269Z,80.40
2017-09-08T06:48:56.566Z,80.30
2017-09-08T06:49:59.142Z,80.20
2017-09-08T06:51:01.724Z,80.30
2017-09-08T06:52:05.058Z,80.40
2017-09-08T06:53:07.684Z,80.30
2017-09-08T06:54:10.160Z,80.10
2017-09-08T06:55:13.396Z,79.60
2017-09-08T06:56:16.623Z,79.70
2017-09-08T06:57:19.207Z,79.60
2017-09-08T06:58:22.554Z,79.70
2017-09-08T06:59:25.071Z,79.50
2017-09-08T07:00:27.556Z,79.40
2017-09-08T07:01:30.117Z,79.00
2017-09-08T07:02:32.613Z,78.90
2017-09-08T07:03:35.931Z,78.60
2017-09-08T07:04:39.891Z,78.50
2017-09-08T07:05:42.383Z,78.40
2017-09-08T07:06:45.463Z,78.40
2017-09-08T07:07:47.970Z,78.50
2017-09-08T07:08:50.502Z,78.50
2017-09-08T07:09:53.024Z,78.60
2017-09-08T07:10:55.532Z,78.30
2017-09-08T07:11:58.174Z,78.20
2017-09-08T07:13:00.699Z,78.20
2017-09-08T07:14:03.269Z,78.00
2017-09-08T07:15:06.043Z,78.10
2017-09-08T07:16:08.592Z,78.30
2017-09-08T07:17:11.125Z,78.30
2017-09-08T07:18:13.653Z,78.00
2017-09-08T07:19:16.148Z,77.90
2017-09-08T07:20:18.691Z,78.20
2017-09-08T07:21:21.993Z,78.20
2017-09-08T07:22:25.279Z,78.40
2017-09-08T07:23:27.849Z,78.40
2017-09-08T07:24:30.396Z,78.20
2017-09-08T07:25:32.934Z,78.20
2017-09-08T07:26:35.462Z,78.00
2017-09-08T07:27:37.971Z,77.60
2017-09-08T07:28:40.495Z,77.60
2017-09-08T07:29:43.073Z,77.10
2017-09-08T07:30:45.599Z,77.20
2017-09-08T07:31:48.092Z,77.00
2017-09-08T07:32:50.567Z,76.80
2017-09-08T07:33:53.909Z,76.70
2017-09-08T07:34:57.148Z,77.10
2017-09-08T07:36:00.327Z,77.10
2017-09-08T07:37:03.576Z,76.70
2017-09-08T07:38:06.067Z,76.80
2017-09-08T07:39:09.675Z,76.20
2017-09-08T07:40:12.229Z,76.10
2017-09-08T07:41:15.544Z,75.80
2017-09-08T07:42:18.033Z,75.80
2017-09-08T07:43:20.516Z,75.40
2017-09-08T07:44:23.036Z,76.40
2017-09-08T07:45:26.343Z,75.20
2017-09-08T07:46:28.846Z,75.00
2017-09-08T07:47:32.107Z,75.00
2017-09-08T07:48:34.635Z,74.90
2017-09-08T07:49:37.159Z,75.10
2017-09-08T07:50:40.413Z,74.80
2017-09-08T07:51:42.899Z,75.50
2017-09-08T07:52:46.150Z,73.90
2017-09-08T07:53:49.417Z,73.60
2017-09-08T07:54:51.955Z,73.60
2017-09-08T07:55:54.472Z,73.10
2017-09-08T07:56:57.090Z,72.80
2017-09-08T07:57:59.597Z,72.80
2017-09-08T07:59:02.106Z,72.70
2017-09-08T08:00:05.378Z,73.00
2017-09-08T08:01:07.892Z,72.30
2017-09-08T08:02:10.368Z,72.40
2017-09-08T08:03:12.875Z,72.50
2017-09-08T08:04:15.333Z,72.90
2017-09-08T08:05:17.828Z,72.90
2017-09-08T08:06:20.296Z,72.40
2017-09-08T08:07:22.763Z,71.00
2017-09-08T08:08:25.330Z,71.00
2017-09-08T08:09:27.803Z,71.50
2017-09-08T08:10:30.314Z,71.20
2017-09-08T08:11:33.575Z,71.30
2017-09-08T08:12:36.043Z,71.20
2017-09-08T08:13:38.519Z,71.60
2017-09-08T08:14:40.995Z,71.50
2017-09-08T08:15:43.455Z,71.20
2017-09-08T08:16:46.704Z,71.50
2017-09-08T08:17:49.937Z,72.00
2017-09-08T08:18:53.155Z,72.20
2017-09-08T08:19:55.715Z,72.10
2017-09-08T08:20:58.211Z,72.20
2017-09-08T08:22:00.697Z,72.50
2017-09-08T08:23:03.163Z,72.60
2017-09-08T08:24:06.106Z,72.90
2017-09-08T08:25:09.879Z,73.10
2017-09-08T08:26:13.119Z,72.60
2017-09-08T08:27:16.351Z,72.30
2017-09-08T08:28:19.620Z,72.60
2017-09-08T08:29:22.604Z,72.40
2017-09-08T08:30:25.105Z,72.70
2017-09-08T08:31:27.603Z,73.10
2017-09-08T08:32:30.156Z,73.00
2017-09-08T08:33:32.659Z,73.70
2017-09-08T08:34:35.184Z,72.60
2017-09-08T08:35:37.991Z,73.40
2017-09-08T08:36:41.248Z,72.50
2017-09-08T08:37:44.475Z,72.30
2017-09-08T08:38:47.707Z,73.00
2017-09-08T08:39:50.173Z,72.20
2017-09-08T08:40:52.673Z,72.50
2017-09-08T08:41:55.139Z,73.00
2017-09-08T08:42:57.689Z,73.30
2017-09-08T08:44:00.175Z,73.50
2017-09-08T08:45:02.653Z,73.80
2017-09-08T08:46:05.212Z,73.90
2017-09-08T08:47:07.750Z,74.60
2017-09-08T08:48:10.215Z,74.50
2017-09-08T08:49:12.717Z,74.50
2017-09-08T08:50:15.198Z,75.30
2017-09-08T08:51:18.432Z,75.60
2017-09-08T08:52:21.658Z,75.40
2017-09-08T08:53:24.127Z,74.60
2017-09-08T08:54:26.643Z,74.30
2017-09-08T08:55:30.004Z,75.00
2017-09-08T08:56:32.467Z,74.90
2017-09-08T08:57:35.047Z,75.10
2017-09-08T08:58:37.511Z,75.30
2017-09-08T08:59:40.181Z,75.30
2017-09-08T09:00:42.627Z,75.10
2017-09-08T09:01:45.083Z,75.10
2017-09-08T09:02:47.692Z,75.00
2017-09-08T09:03:50.144Z,75.50
2017-09-08T09:04:52.640Z,75.10
2017-09-08T09:05:55.109Z,74.70
2017-09-08T09:06:57.951Z,74.70
2017-09-08T09:08:01.199Z,75.10
2017-09-08T09:09:04.436Z,74.80
2017-09-08T09:10:06.923Z,74.80
2017-09-08T09:11:09.607Z,74.90
2017-09-08T09:12:12.848Z,74.80
2017-09-08T09:13:16.108Z,75.00
2017-09-08T09:14:18.666Z,75.00
2017-09-08T09:15:21.202Z,74.60
2017-09-08T09:16:23.898Z,74.40
2017-09-08T09:17:26.436Z,74.30
2017-09-08T09:18:28.996Z,73.60
2017-09-08T09:19:31.478Z,73.40
2017-09-08T09:20:34.099Z,73.00
2017-09-08T09:21:36.597Z,73.10
2017-09-08T09:22:39.915Z,73.00
2017-09-08T09:23:43.192Z,72.30
2017-09-08T09:24:46.452Z,72.60
2017-09-08T09:25:48.938Z,72.60
2017-09-08T09:26:51.403Z,72.60
2017-09-08T09:27:54.078Z,72.40
2017-09-08T09:28:56.562Z,72.40
2017-09-08T09:29:59.039Z,72.20
2017-09-08T09:31:01.598Z,72.30
2017-09-08T09:32:04.201Z,72.80
2017-09-08T09:33:07.567Z,72.80
2017-09-08T09:34:10.177Z,72.80
2017-09-08T09:35:13.263Z,72.70
2017-09-08T09:36:15.830Z,72.70
2017-09-08T09:37:18.490Z,72.70
2017-09-08T09:38:21.073Z,72.40
2017-09-08T09:39:23.576Z,72.80
2017-09-08T09:40:26.201Z,72.50
2017-09-08T09:41:28.768Z,72.20
2017-09-08T09:42:32.160Z,72.50
2017-09-08T09:43:34.675Z,72.50
2017-09-08T09:44:37.931Z,72.50
2017-09-08T09:45:40.426Z,72.50
2017-09-08T09:46:43.160Z,72.80
2017-09-08T09:47:45.729Z,71.20
2017-09-08T09:48:48.324Z,71.20
2017-09-08T09:49:50.873Z,71.30
2017-09-08T09:50:53.436Z,71.40
2017-09-08T09:51:55.962Z,71.50
2017-09-08T09:52:58.490Z,71.30
2017-09-08T09:54:01.004Z,71.30
2017-09-08T09:55:03.629Z,71.30
2017-09-08T09:56:06.335Z,70.60
2017-09-08T09:57:08.819Z,70.40
2017-09-08T09:58:11.364Z,70.60
2017-09-08T09:59:13.932Z,71.00
2017-09-08T10:00:16.415Z,71.00
2017-09-08T10:01:19.705Z,71.90
2017-09-08T10:02:22.313Z,71.80
2017-09-08T10:03:24.926Z,71.30
2017-09-08T10:04:27.455Z,71.30
2017-09-08T10:05:29.989Z,71.20
2017-09-08T10:06:32.513Z,71.20
2017-09-08T10:07:35.041Z,71.00
2017-09-08T10:08:37.602Z,70.70
2017-09-08T10:09:40.078Z,71.10
2017-09-08T10:10:42.578Z,71.00
2017-09-08T10:11:45.236Z,71.10
2017-09-08T10:12:47.777Z,70.70
2017-09-08T10:13:50.396Z,70.30
2017-09-08T10:14:52.949Z,70.20
2017-09-08T10:15:55.419Z,70.20
2017-09-08T10:16:58.692Z,70.10
2017-09-08T10:18:01.190Z,70.00
2017-09-08T10:19:04.594Z,70.20
2017-09-08T10:20:07.063Z,70.10
2017-09-08T10:21:10.299Z,70.10
2017-09-08T10:22:13.557Z,70.30
2017-09-08T10:23:16.784Z,70.20
2017-09-08T10:24:20.029Z,70.00
2017-09-08T10:25:22.607Z,69.90
2017-09-08T10:26:25.124Z,70.10
2017-09-08T10:27:27.621Z,69.80
2017-09-08T10:28:30.920Z,70.10
2017-09-08T10:29:33.436Z,70.80
2017-09-08T10:30:35.975Z,70.60
2017-09-08T10:31:38.442Z,70.10
2017-09-08T10:32:40.928Z,70.10
2017-09-08T10:33:43.388Z,70.00
2017-09-08T10:34:45.835Z,70.10
2017-09-08T10:35:48.404Z,69.90
2017-09-08T10:36:50.874Z,69.30
2017-09-08T10:37:53.379Z,69.40
2017-09-08T10:38:56.625Z,68.90
2017-09-08T10:39:59.075Z,68.90
2017-09-08T10:41:01.548Z,69.10
2017-09-08T10:42:04.058Z,69.20
2017-09-08T10:43:06.571Z,69.20
2017-09-08T10:44:09.041Z,69.60
2017-09-08T10:45:12.290Z,68.70
2017-09-08T10:46:15.521Z,68.80
2017-09-08T10:47:18.155Z,68.80
2017-09-08T10:48:21.606Z,69.30
2017-09-08T10:49:24.889Z,68.70
2017-09-08T10:50:27.401Z,68.70
2017-09-08T10:51:29.971Z,68.90
2017-09-08T10:52:32.531Z,68.70
2017-09-08T10:53:35.904Z,68.50
2017-09-08T10:54:38.496Z,68.40
2017-09-08T10:55:41.064Z,68.40
2017-09-08T10:56:43.660Z,68.00
2017-09-08T10:57:46.157Z,68.30
2017-09-08T10:58:48.970Z,68.30
2017-09-08T10:59:51.581Z,68.20
2017-09-08T11:00:54.218Z,68.30
2017-09-08T11:01:56.990Z,68.40
2017-09-08T11:02:59.607Z,68.20
2017-09-08T11:04:02.148Z,68.00
2017-09-08T11:05:05.511Z,68.20
2017-09-08T11:06:08.771Z,67.00
2017-09-08T11:07:12.113Z,67.10
2017-09-08T11:08:14.628Z,67.20
2017-09-08T11:09:17.133Z,66.60
2017-09-08T11:10:20.387Z,66.60
2017-09-08T11:11:23.635Z,66.60
2017-09-08T11:12:26.181Z,66.50
2017-09-08T11:13:28.683Z,66.20
2017-09-08T11:14:31.939Z,65.30
2017-09-08T11:15:34.404Z,65.30
2017-09-08T11:16:36.872Z,65.20
2017-09-08T11:17:40.141Z,64.60
2017-09-08T11:18:42.770Z,64.50
2017-09-08T11:19:45.372Z,65.00
2017-09-08T11:20:48.005Z,64.20
2017-09-08T11:21:50.505Z,64.10
2017-09-08T11:22:52.991Z,64.40
2017-09-08T11:23:55.463Z,64.80
2017-09-08T11:24:58.714Z,64.10
2017-09-08T11:26:01.945Z,64.00
2017-09-08T11:27:05.183Z,64.20
2017-09-08T11:28:07.641Z,64.10
2017-09-08T11:29:10.137Z,64.00
2017-09-08T11:30:13.358Z,64.60
2017-09-08T11:31:15.835Z,64.60
2017-09-08T11:32:18.332Z,64.00
2017-09-08T11:33:27.441Z,63.90
2017-09-08T11:34:35.774Z,63.90
2017-09-08T11:35:43.977Z,63.80
2017-09-08T11:36:52.340Z,64.00
2017-09-08T11:37:54.811Z,63.40
2017-09-08T11:38:58.091Z,63.90
2017-09-08T11:40:00.571Z,63.70
2017-09-08T11:41:03.809Z,62.80
2017-09-08T11:42:06.311Z,62.70
2017-09-08T11:43:08.771Z,63.10
2017-09-08T11:44:12.048Z,62.40
2017-09-08T11:45:14.802Z,62.40
2017-09-08T11:46:18.186Z,63.30
2017-09-08T11:47:20.827Z,63.30
2017-09-08T11:48:24.050Z,63.00
2017-09-08T11:49:27.378Z,62.90
2017-09-08T11:50:29.980Z,62.70
2017-09-08T11:51:32.473Z,62.20
2017-09-08T11:52:35.837Z,62.10
2017-09-08T11:53:38.414Z,62.10
2017-09-08T11:54:40.897Z,62.50
2017-09-08T11:55:43.530Z,62.20
2017-09-08T11:56:46.158Z,61.60
2017-09-08T11:57:48.739Z,61.80
2017-09-08T11:58:51.959Z,62.10
2017-09-08T11:59:54.417Z,62.10
2017-09-08T12:00:56.887Z,62.10
2017-09-08T12:01:59.684Z,62.50
2017-09-08T12:03:02.151Z,63.00
2017-09-08T12:04:04.603Z,62.50
2017-09-08T12:05:07.836Z,61.00
2017-09-08T12:06:11.090Z,62.00
2017-09-08T12:07:14.344Z,61.50
2017-09-08T12:08:17.633Z,61.80
2017-09-08T12:09:20.103Z,61.80
2017-09-08T12:10:23.370Z,61.90
2017-09-08T12:11:25.828Z,61.90
2017-09-08T12:12:29.059Z,61.70
2017-09-08T12:13:31.592Z,61.60
2017-09-08T12:14:34.045Z,62.10
2017-09-08T12:15:36.669Z,62.30
2017-09-08T12:16:39.139Z,62.00
2017-09-08T12:17:41.705Z,62.10
2017-09-08T12:18:44.211Z,62.20
2017-09-08T12:19:46.675Z,62.50
2017-09-08T12:20:49.151Z,62.20
2017-09-08T12:21:51.818Z,62.50
2017-09-08T12:22:55.103Z,63.20
2017-09-08T12:23:57.608Z,63.20
2017-09-08T12:25:00.104Z,63.60
2017-09-08T12:26:02.704Z,63.40
2017-09-08T12:27:05.244Z,63.40
2017-09-08T12:28:07.748Z,63.50
2017-09-08T12:29:10.234Z,63.30
2017-09-08T12:30:12.687Z,64.20
2017-09-08T12:31:15.159Z,63.80
2017-09-08T12:32:17.647Z,64.40
2017-09-08T12:33:20.259Z,64.80
2017-09-08T12:34:22.766Z,64.60
2017-09-08T12:35:26.014Z,64.40
2017-09-08T12:36:29.263Z,66.00
2017-09-08T12:37:31.814Z,65.30
2017-09-08T12:38:34.340Z,65.00
2017-09-08T12:39:36.811Z,64.70
2017-09-08T12:40:39.403Z,64.60
2017-09-08T12:41:41.887Z,64.90
2017-09-08T12:42:45.142Z,65.20
2017-09-08T12:43:47.640Z,65.10
2017-09-08T12:44:50.883Z,65.00
2017-09-08T12:45:54.156Z,66.00
2017-09-08T12:46:56.731Z,66.00
2017-09-08T12:47:59.259Z,66.00
2017-09-08T12:49:01.748Z,66.70
2017-09-08T12:50:04.261Z,66.30
2017-09-08T12:51:06.731Z,65.90
2017-09-08T12:52:09.224Z,66.30
2017-09-08T12:53:11.792Z,66.50
2017-09-08T12:54:14.263Z,65.90
2017-09-08T12:55:16.740Z,66.90
2017-09-08T12:56:19.221Z,67.10
2017-09-08T12:57:21.707Z,67.80
2017-09-08T12:58:25.065Z,68.30
2017-09-08T12:59:28.288Z,67.90
2017-09-08T13:00:30.881Z,67.90
2017-09-08T13:01:33.360Z,67.50
2017-09-08T13:02:36.602Z,67.80
2017-09-08T13:03:39.911Z,67.50
2017-09-08T13:04:42.391Z,67.40
2017-09-08T13:05:44.863Z,67.70
2017-09-08T13:06:47.337Z,68.50
2017-09-08T13:07:49.832Z,68.30
2017-09-08T13:08:52.319Z,68.30
2017-09-08T13:09:54.791Z,68.20
2017-09-08T13:10:57.286Z,68.20
2017-09-08T13:11:59.739Z,68.00
2017-09-08T13:13:03.004Z,66.80
2017-09-08T13:14:05.528Z,66.80
2017-09-08T13:15:09.085Z,67.50
2017-09-08T13:16:11.607Z,67.70
2017-09-08T13:17:14.078Z,66.80
2017-09-08T13:18:16.536Z,67.80
2017-09-08T13:19:19.825Z,67.00
2017-09-08T13:20:22.305Z,66.90
2017-09-08T13:21:25.538Z,67.80
2017-09-08T13:22:28.803Z,68.70
2017-09-08T13:23:31.294Z,68.00
2017-09-08T13:24:33.784Z,68.20
2017-09-08T13:25:36.329Z,68.40
2017-09-08T13:26:38.784Z,68.10
2017-09-08T13:27:42.031Z,68.60
2017-09-08T13:28:45.272Z,68.70